Time;durP1;ratioP1;P1;durP2;ratioP2;P2;SDS_P1;SDS_P2;PMS_P1;PMS_P2;Temp;Humidity;BMP_temperature;BMP_pressure;BME280_temperature;BME280_humidity;BME280_pressure;Samples;Min_cycle;Max_cycle;Signal;HPM_P1;HPM_P2
2021/05/13 05:55:36;;;;;;;21.23;19.05;;;;;;;;;;10585746;27;20339;-83
2021/05/13 06:00:37;;;;;;;18.80;17.00;;;;;;;;;;10544905;28;20096;-84
2021/05/13 06:05:39;;;;;;;18.13;16.38;;;;;;;;;;10549706;28;20024;-85
2021/05/13 06:10:40;;;;;;;18.30;16.70;;;;;;;;;;10543811;28;20032;-85
2021/05/13 06:15:41;;;;;;;16.77;15.18;;;;;;;;;;10550069;28;20032;-85
2021/05/13 06:20:42;;;;;;;9.73;8.93;;;;;;;;;;10546749;28;20028;-85
2021/05/13 06:25:43;;;;;;;11.30;10.32;;;;;;;;;;10549742;28;20047;-84
2021/05/13 06:30:46;;;;;;;10.45;9.55;;;;;;;;;;10543983;28;20028;-85
2021/05/13 06:35:47;;;;;;;12.00;10.93;;;;;;;;;;10540017;28;20469;-86
2021/05/13 06:40:48;;;;;;;19.33;17.63;;;;;;;;;;10538752;28;20028;-83
2021/05/13 06:45:49;;;;;;;16.55;15.15;;;;;;;;;;10540237;28;20059;-84
2021/05/13 06:50:50;;;;;;;20.50;18.75;;;;;;;;;;10542993;28;20066;-84
2021/05/13 06:55:53;;;;;;;16.48;15.07;;;;;;;;;;10579074;28;20092;-84
2021/05/13 07:00:54;;;;;;;14.00;12.80;;;;;;;;;;10568718;28;20020;-84
2021/05/13 07:05:55;;;;;;;17.20;15.68;;;;;;;;;;10527248;28;20089;-85
2021/05/13 07:10:58;;;;;;;16.30;14.90;;;;;;;;;;10511048;28;20026;-84
2021/05/13 07:15:59;;;;;;;14.30;13.10;;;;;;;;;;10509532;28;20021;-84
2021/05/13 07:21:00;;;;;;;23.65;21.60;;;;;;;;;;10507011;28;20036;-85
2021/05/13 07:26:01;;;;;;;18.75;17.15;;;;;;;;;;10507661;28;20025;-84
2021/05/13 07:31:02;;;;;;;18.67;16.95;;;;;;;;;;10507643;28;20021;-84
2021/05/13 07:36:04;;;;;;;17.00;15.60;;;;;;;;;;10506857;28;20163;-84
2021/05/13 07:41:06;;;;;;;14.93;13.73;;;;;;;;;;10506191;28;20473;-84
2021/05/13 07:46:07;;;;;;;17.52;16.13;;;;;;;;;;10505706;28;20108;-84
2021/05/13 07:51:08;;;;;;;12.18;11.07;;;;;;;;;;10506443;28;20025;-84
2021/05/13 07:56:09;;;;;;;18.52;17.02;;;;;;;;;;10505661;28;20394;-84
2021/05/13 08:01:10;;;;;;;14.07;12.88;;;;;;;;;;10512180;28;20024;-84
2021/05/13 08:06:11;;;;;;;16.00;14.65;;;;;;;;;;10508619;28;20043;-85
2021/05/13 08:11:12;;;;;;;16.65;15.23;;;;;;;;;;10510686;28;20497;-85
2021/05/13 08:16:13;;;;;;;17.80;16.17;;;;;;;;;;10509548;28;20146;-87
2021/05/13 08:21:15;;;;;;;13.85;12.60;;;;;;;;;;10513068;28;20033;-84
2021/05/13 08:26:15;;;;;;;13.30;12.05;;;;;;;;;;10512112;28;20425;-85
2021/05/13 08:31:16;;;;;;;12.00;10.98;;;;;;;;;;10515264;28;20061;-84
2021/05/13 08:36:17;;;;;;;17.35;15.85;;;;;;;;;;10517918;28;20452;-86
2021/05/13 08:41:18;;;;;;;17.17;15.60;;;;;;;;;;10519312;28;20119;-85
2021/05/13 08:46:21;;;;;;;13.55;12.25;;;;;;;;;;10520144;28;20028;-86
2021/05/13 08:51:22;;;;;;;12.35;11.30;;;;;;;;;;10525410;28;20039;-85
2021/05/13 08:56:27;;;;;;;12.13;11.13;;;;;;;;;;10518278;28;20033;-87
2021/05/13 09:01:32;;;;;;;13.10;11.90;;;;;;;;;;10530390;28;20063;-85
2021/05/13 09:06:58;;;;;;;13.13;11.93;;;;;;;;;;10522395;28;20024;-84
2021/05/13 09:12:01;;;;;;;8.65;7.88;;;;;;;;;;10535537;28;20036;-85
2021/05/13 09:17:02;;;;;;;11.00;10.00;;;;;;;;;;10532844;28;20016;-85
2021/05/13 09:22:05;;;;;;;5.85;5.35;;;;;;;;;;10511695;28;20020;-84
2021/05/13 09:27:13;;;;;;;6.43;5.88;;;;;;;;;;10510897;28;20115;-85
2021/05/13 09:32:16;;;;;;;8.15;6.60;;;;;;;;;;10509716;28;20035;-85
2021/05/13 09:37:17;;;;;;;9.13;8.38;;;;;;;;;;10508117;28;20025;-85
2021/05/13 09:42:18;;;;;;;10.88;9.98;;;;;;;;;;10508639;28;20476;-85
2021/05/13 09:47:26;;;;;;;5.82;5.32;;;;;;;;;;10508298;28;20031;-85
2021/05/13 09:52:40;;;;;;;10.10;9.18;;;;;;;;;;10516660;28;20032;-85
2021/05/13 09:57:48;;;;;;;10.98;9.88;;;;;;;;;;10514387;28;20028;-85
2021/05/13 10:02:49;;;;;;;8.60;7.78;;;;;;;;;;10511264;28;20084;-85
2021/05/13 10:07:50;;;;;;;6.68;5.28;;;;;;;;;;10513185;28;20477;-85
2021/05/13 10:12:54;;;;;;;9.15;8.15;;;;;;;;;;10513710;28;20036;-85
2021/05/13 10:17:57;;;;;;;103.75;93.85;;;;;;;;;;10513639;28;20017;-85
2021/05/13 10:23:02;;;;;;;6.68;5.97;;;;;;;;;;10516844;28;20027;-85
2021/05/13 10:28:04;;;;;;;8.13;7.43;;;;;;;;;;10517758;28;20164;-85
2021/05/13 10:33:16;;;;;;;7.47;6.72;;;;;;;;;;10514687;28;20024;-85
2021/05/13 10:38:17;;;;;;;7.10;6.38;;;;;;;;;;10513478;28;20078;-85
2021/05/13 10:43:26;;;;;;;8.85;7.93;;;;;;;;;;10521743;28;20054;-85
2021/05/13 10:48:39;;;;;;;8.00;7.20;;;;;;;;;;10525014;28;20059;-85
2021/05/13 10:53:45;;;;;;;9.48;8.48;;;;;;;;;;10515545;28;20035;-85
2021/05/13 10:59:01;;;;;;;8.65;7.82;;;;;;;;;;10515833;28;20025;-85
2021/05/13 11:04:21;;;;;;;6.45;5.60;;;;;;;;;;10514621;28;20028;-85
2021/05/13 11:20:22;;;;;;;7.43;6.63;;;;;;;;;;10517699;28;20462;-85
2021/05/13 11:25:42;;;;;;;7.88;7.15;;;;;;;;;;10514932;28;20025;-85
2021/05/13 11:30:44;;;;;;;6.93;6.22;;;;;;;;;;10515892;28;20025;-85
2021/05/13 11:35:45;;;;;;;7.15;6.45;;;;;;;;;;10515341;28;20028;-85
2021/05/13 11:40:46;;;;;;;6.10;4.78;;;;;;;;;;10514094;28;20020;-85
2021/05/13 11:45:48;;;;;;;6.85;5.20;;;;;;;;;;10514688;28;20032;-85
2021/05/13 11:50:49;;;;;;;7.32;5.97;;;;;;;;;;10513040;28;20037;-85
2021/05/13 11:55:51;;;;;;;6.55;5.93;;;;;;;;;;10513297;28;20029;-85
2021/05/13 12:00:51;;;;;;;4.55;3.80;;;;;;;;;;10512556;28;20020;-85
2021/05/13 12:05:54;;;;;;;6.55;5.88;;;;;;;;;;10516635;28;20021;-86
2021/05/13 12:10:55;;;;;;;7.18;6.00;;;;;;;;;;10499440;28;20479;-85
2021/05/13 12:16:03;;;;;;;6.40;5.78;;;;;;;;;;10514258;28;20017;-85
2021/05/13 12:21:04;;;;;;;6.00;5.40;;;;;;;;;;10513897;28;20050;-85
2021/05/13 12:26:05;;;;;;;4.50;3.67;;;;;;;;;;10514585;28;20262;-85
2021/05/13 12:31:06;;;;;;;5.07;4.60;;;;;;;;;;10514956;28;20154;-85
2021/05/13 12:36:12;;;;;;;4.38;3.97;;;;;;;;;;10513995;28;20552;-85
2021/05/13 12:41:15;;;;;;;6.35;4.18;;;;;;;;;;10509481;28;20042;-85
2021/05/13 12:46:20;;;;;;;4.75;3.83;;;;;;;;;;10511132;28;20390;-85
2021/05/13 12:51:25;;;;;;;5.68;5.10;;;;;;;;;;10503683;28;20029;-85
2021/05/13 12:56:32;;;;;;;4.65;3.92;;;;;;;;;;10501979;28;20115;-84
2021/05/13 13:01:33;;;;;;;5.95;5.05;;;;;;;;;;10502802;28;20025;-85
2021/05/13 13:06:51;;;;;;;5.55;4.35;;;;;;;;;;10502534;28;20024;-85
2021/05/13 13:11:59;;;;;;;5.68;4.55;;;;;;;;;;10504063;28;20024;-84
2021/05/13 13:17:00;;;;;;;5.13;4.63;;;;;;;;;;10507236;28;20025;-85
2021/05/13 13:22:02;;;;;;;5.85;4.72;;;;;;;;;;10509566;28;20040;-85
2021/05/13 13:27:04;;;;;;;5.55;5.05;;;;;;;;;;10509603;28;20036;-85
2021/05/13 13:32:07;;;;;;;4.88;3.75;;;;;;;;;;10505059;28;20025;-83
2021/05/13 13:37:08;;;;;;;8.18;5.18;;;;;;;;;;10510445;28;20046;-84
2021/05/13 13:42:11;;;;;;;3.40;2.60;;;;;;;;;;10504818;28;20078;-83
2021/05/13 13:47:13;;;;;;;4.47;3.67;;;;;;;;;;10501874;28;20029;-83
2021/05/13 13:52:14;;;;;;;7.18;5.22;;;;;;;;;;10515992;28;20410;-83
2021/05/13 13:57:15;;;;;;;5.15;4.25;;;;;;;;;;10537328;28;20024;-83
2021/05/13 14:02:16;;;;;;;7.57;6.55;;;;;;;;;;10507959;28;20101;-84
2021/05/13 14:07:17;;;;;;;5.95;4.90;;;;;;;;;;10504530;28;20162;-85
2021/05/13 14:12:19;;;;;;;10.07;8.93;;;;;;;;;;10506061;28;20024;-85
2021/05/13 14:17:22;;;;;;;8.43;7.60;;;;;;;;;;10514355;28;20060;-85
2021/05/13 14:22:23;;;;;;;8.30;7.20;;;;;;;;;;10511849;28;20486;-85
2021/05/13 14:27:24;;;;;;;7.57;6.88;;;;;;;;;;10510964;28;20063;-85
2021/05/13 14:32:25;;;;;;;8.35;7.55;;;;;;;;;;10513945;28;20028;-84
2021/05/13 14:37:26;;;;;;;9.10;8.18;;;;;;;;;;10515331;28;20025;-85
2021/05/13 14:42:28;;;;;;;8.30;7.13;;;;;;;;;;10522890;28;20029;-85
2021/05/13 14:47:29;;;;;;;6.65;6.07;;;;;;;;;;10512590;28;20024;-85
2021/05/13 14:52:30;;;;;;;8.52;7.63;;;;;;;;;;10511662;28;20047;-83
2021/05/13 14:57:32;;;;;;;8.15;7.35;;;;;;;;;;10507394;28;20031;-83
2021/05/13 15:02:33;;;;;;;7.13;6.43;;;;;;;;;;10509374;28;20052;-83
2021/05/13 15:07:34;;;;;;;5.82;5.13;;;;;;;;;;10506931;28;20409;-83
2021/05/13 15:12:36;;;;;;;6.57;5.88;;;;;;;;;;10510106;28;20024;-85
2021/05/13 15:17:37;;;;;;;6.78;5.88;;;;;;;;;;10514391;28;20067;-84
2021/05/13 15:22:38;;;;;;;4.28;3.40;;;;;;;;;;10505375;28;20046;-84
2021/05/13 15:27:39;;;;;;;3.85;3.50;;;;;;;;;;10504151;28;20115;-84
2021/05/13 15:32:40;;;;;;;5.45;4.68;;;;;;;;;;10507165;28;20055;-84
2021/05/13 15:37:41;;;;;;;5.85;3.95;;;;;;;;;;10506311;28;20088;-85
2021/05/13 15:42:42;;;;;;;4.57;4.18;;;;;;;;;;10507266;28;20059;-85
2021/05/13 15:47:42;;;;;;;5.32;4.82;;;;;;;;;;10507501;28;20055;-85
2021/05/13 15:52:43;;;;;;;7.40;4.32;;;;;;;;;;10507574;28;20029;-85
2021/05/13 15:57:44;;;;;;;5.45;4.25;;;;;;;;;;10511168;28;20078;-85
2021/05/13 16:02:45;;;;;;;3.60;3.30;;;;;;;;;;10512736;28;20058;-85
2021/05/13 16:07:46;;;;;;;4.15;3.65;;;;;;;;;;10505033;28;20149;-85
2021/05/13 16:12:57;;;;;;;5.43;4.40;;;;;;;;;;10513086;28;20059;-85
2021/05/13 16:17:58;;;;;;;4.40;3.83;;;;;;;;;;10510552;28;20025;-84
2021/05/13 16:22:59;;;;;;;5.07;4.50;;;;;;;;;;10505806;28;20025;-84
2021/05/13 16:28:00;;;;;;;6.28;5.03;;;;;;;;;;10514192;28;20025;-85
2021/05/13 16:33:01;;;;;;;5.18;4.63;;;;;;;;;;10514512;28;20123;-85
2021/05/13 16:38:02;;;;;;;5.20;4.70;;;;;;;;;;10515553;28;20092;-85
2021/05/13 16:43:03;;;;;;;4.20;3.47;;;;;;;;;;10506516;28;20119;-85
2021/05/13 16:48:04;;;;;;;3.47;3.17;;;;;;;;;;10503497;28;20032;-85
2021/05/13 17:04:08;;;;;;;4.20;3.47;;;;;;;;;;10504943;28;19905;-85
2021/05/13 17:09:09;;;;;;;2.95;2.50;;;;;;;;;;10502065;28;20111;-84
2021/05/13 17:14:10;;;;;;;4.03;3.58;;;;;;;;;;10501957;28;20119;-85
2021/05/13 17:19:11;;;;;;;2.70;2.40;;;;;;;;;;10500823;28;20025;-85
2021/05/13 17:24:13;;;;;;;2.97;2.42;;;;;;;;;;10500663;28;20494;-84
2021/05/13 17:29:14;;;;;;;4.28;3.30;;;;;;;;;;10500952;28;20517;-84
2021/05/13 17:34:15;;;;;;;3.05;2.40;;;;;;;;;;10500079;28;20025;-84
2021/05/13 17:39:24;;;;;;;2.95;2.30;;;;;;;;;;10502962;28;20028;-84
2021/05/13 17:44:25;;;;;;;4.18;2.58;;;;;;;;;;10503004;28;20043;-87
2021/05/13 17:49:26;;;;;;;3.85;2.95;;;;;;;;;;10500836;28;20044;-87
2021/05/13 17:54:27;;;;;;;3.15;2.75;;;;;;;;;;10501223;28;20136;-87
2021/05/13 17:59:28;;;;;;;4.22;3.63;;;;;;;;;;10500941;28;20074;-88
2021/05/13 18:04:29;;;;;;;4.57;3.03;;;;;;;;;;10500321;28;20070;-88
2021/05/13 18:09:30;;;;;;;3.35;2.40;;;;;;;;;;10502519;28;20070;-87
2021/05/13 18:14:31;;;;;;;3.53;2.92;;;;;;;;;;10504520;28;20390;-88
2021/05/13 18:19:32;;;;;;;3.90;2.58;;;;;;;;;;10499856;28;20035;-88
2021/05/13 18:24:33;;;;;;;3.75;2.63;;;;;;;;;;10515557;28;20116;-87
2021/05/13 18:29:36;;;;;;;3.58;2.42;;;;;;;;;;10533322;28;20051;-88
2021/05/13 18:34:37;;;;;;;4.30;2.38;;;;;;;;;;10528867;28;20008;-87
2021/05/13 18:39:40;;;;;;;2.63;1.90;;;;;;;;;;10503679;28;20032;-88
2021/05/13 18:44:41;;;;;;;3.08;2.10;;;;;;;;;;10503083;28;20051;-87
2021/05/13 18:49:42;;;;;;;2.95;2.50;;;;;;;;;;10502112;28;20082;-87
2021/05/13 18:54:43;;;;;;;2.55;1.90;;;;;;;;;;10499537;28;20093;-88
2021/05/13 18:59:44;;;;;;;3.35;2.53;;;;;;;;;;10501820;28;20028;-88
2021/05/13 19:04:45;;;;;;;2.83;1.88;;;;;;;;;;10507715;28;20106;-88
2021/05/13 19:09:53;;;;;;;2.92;2.50;;;;;;;;;;10505778;28;20025;-88
2021/05/13 19:14:54;;;;;;;4.20;2.80;;;;;;;;;;10505562;28;20023;-88
2021/05/13 19:19:55;;;;;;;3.75;2.65;;;;;;;;;;10507932;28;20089;-89
2021/05/13 19:24:56;;;;;;;4.07;2.85;;;;;;;;;;10507506;28;20028;-88
2021/05/13 19:35:16;;;;;;;3.35;2.65;;;;;;;;;;10507409;28;20031;-88
2021/05/13 19:40:19;;;;;;;5.47;3.10;;;;;;;;;;10506210;28;20028;-88
2021/05/13 19:45:20;;;;;;;2.47;2.00;;;;;;;;;;10504036;28;20024;-89
2021/05/13 19:50:21;;;;;;;3.08;2.17;;;;;;;;;;10505186;28;20031;-88
2021/05/13 19:55:22;;;;;;;2.90;2.40;;;;;;;;;;10503330;28;20036;-89
2021/05/13 20:00:25;;;;;;;3.35;1.90;;;;;;;;;;10503490;28;20108;-89
2021/05/13 20:16:04;;;;;;;3.33;2.47;;;;;;;;;;10505194;28;20386;-87
